createdAt,value
2019-04-05T00:00:58.384Z,94817.03
2019-04-05T00:03:48.118Z,94795.05
2019-04-05T00:06:30.234Z,94823.09
2019-04-05T00:09:19.974Z,94825.14
2019-04-05T00:12:01.925Z,94821.89
2019-04-05T00:14:51.635Z,94823.18
2019-04-05T00:17:34.058Z,94828.86
2019-04-05T00:20:23.756Z,94831.38
2019-04-05T00:23:06.060Z,94839.94
2019-04-05T00:28:59.213Z,94835.63
2019-04-05T00:31:48.906Z,94834.79
2019-04-05T00:34:30.911Z,94837.95
2019-04-05T00:37:20.660Z,94835.98
2019-04-05T00:40:03.351Z,94849.71
2019-04-05T00:42:53.042Z,94851.46
2019-04-05T00:45:35.148Z,94852.71
2019-04-05T00:51:20.872Z,94860.14
2019-04-05T00:54:10.705Z,94868.95
2019-04-05T00:57:00.486Z,94858.55
2019-04-05T00:59:50.309Z,94863.35
2019-04-05T01:02:32.823Z,94858.61
2019-04-05T01:05:22.623Z,94870.91
2019-04-05T01:08:12.375Z,94866.88
2019-04-05T01:11:02.158Z,94875.59
2019-04-05T01:14:04.513Z,94875.14
2019-04-05T01:16:46.834Z,94874.77
2019-04-05T01:19:36.531Z,94863.87
2019-04-05T01:22:19.987Z,94837.75
2019-04-05T01:28:29.057Z,94849.39
2019-04-05T01:31:18.763Z,94846.31
2019-04-05T01:34:08.558Z,94849.42
2019-04-05T01:36:58.298Z,94847.01
2019-04-05T01:39:40.213Z,94854.91
2019-04-05T01:42:30.028Z,94824.81
2019-04-05T01:45:52.672Z,94844.36
2019-04-05T01:48:24.209Z,94844.47
2019-04-05T01:51:14.001Z,94845.95
2019-04-05T01:54:03.803Z,94851.72
2019-04-05T01:56:53.577Z,94850.67
2019-04-05T01:59:43.303Z,94842.19
2019-04-05T02:02:25.317Z,94847.68
2019-04-05T02:05:09.459Z,94817.15
2019-04-05T02:07:59.315Z,94836.73
2019-04-05T02:11:02.535Z,94830.93
2019-04-05T02:13:44.862Z,94843.08
2019-04-05T02:16:34.599Z,94823.31
2019-04-05T02:19:16.735Z,94848.40
2019-04-05T02:21:47.840Z,94842.34
2019-04-05T02:24:37.551Z,94841.13
2019-04-05T02:30:31.068Z,94848.61
2019-04-05T02:33:13.166Z,94839.89
2019-04-05T02:36:02.970Z,94839.72
2019-04-05T02:38:52.735Z,94846.80
2019-04-05T02:41:42.521Z,94834.50
2019-04-05T02:44:24.752Z,94836.31
2019-04-05T02:47:14.691Z,94829.94
2019-04-05T02:50:04.593Z,94828.91
2019-04-05T02:53:15.869Z,94825.03
2019-04-05T02:59:19.745Z,94823.99
2019-04-05T03:02:09.662Z,94833.41
2019-04-05T03:04:59.542Z,94829.84
2019-04-05T03:07:49.297Z,94828.84
2019-04-05T03:11:17.203Z,94807.08
2019-04-05T03:14:00.757Z,94833.50
2019-04-05T03:17:11.077Z,94812.39
2019-04-05T03:23:14.738Z,94828.31
2019-04-05T03:26:25.064Z,94834.64
2019-04-05T03:29:14.865Z,94834.58
2019-04-05T03:32:04.982Z,94829.65
2019-04-05T03:34:54.688Z,94821.29
2019-04-05T03:37:37.425Z,94831.95
2019-04-05T03:40:27.166Z,94833.81
2019-04-05T03:43:10.434Z,94834.80
2019-04-05T03:46:00.148Z,94829.16
2019-04-05T03:48:43.081Z,94831.85
2019-04-05T03:51:33.384Z,94800.69
2019-04-05T03:54:16.687Z,94836.26
2019-04-05T03:56:47.371Z,94834.91
2019-04-05T03:59:37.104Z,94838.08
2019-04-05T04:02:23.393Z,94843.11
2019-04-05T04:05:11.562Z,94842.87
2019-04-05T04:07:57.756Z,94844.51
2019-04-05T04:10:39.757Z,94839.12
2019-04-05T04:13:29.785Z,94845.72
2019-04-05T04:16:38.658Z,94844.38
2019-04-05T04:22:43.143Z,94829.19
2019-04-05T04:25:32.996Z,94819.38
2019-04-05T04:28:22.986Z,94824.77
2019-04-05T04:31:05.069Z,94835.45
2019-04-05T04:33:54.851Z,94841.34
2019-04-05T04:36:44.957Z,94813.05
2019-04-05T04:39:29.236Z,94835.11
2019-04-05T04:42:19.115Z,94835.45
2019-04-05T04:45:11.929Z,94831.27
2019-04-05T04:47:52.883Z,94838.81
2019-04-05T04:50:35.383Z,94835.69
2019-04-05T04:53:25.140Z,94834.05
2019-04-05T04:56:08.167Z,94825.86
2019-04-05T04:58:57.868Z,94836.38
2019-04-05T05:01:39.959Z,94841.76
2019-04-05T05:07:29.067Z,94846.29
2019-04-05T05:10:11.559Z,94848.19
2019-04-05T05:13:01.323Z,94849.08
2019-04-05T05:15:51.233Z,94844.27
2019-04-05T05:18:41.120Z,94844.16
2019-04-05T05:21:31.023Z,94839.00
2019-04-05T05:24:20.990Z,94840.44
2019-04-05T05:27:10.913Z,94849.45
2019-04-05T05:30:00.691Z,94831.83
2019-04-05T05:32:50.472Z,94851.31
2019-04-05T05:35:40.380Z,94852.95
2019-04-05T05:38:22.942Z,94850.55
2019-04-05T05:41:12.705Z,94850.98
2019-04-05T05:44:02.491Z,94835.86
2019-04-05T05:46:45.161Z,94834.80
2019-04-05T05:49:35.100Z,94835.63
2019-04-05T05:52:25.256Z,94850.42
2019-04-05T05:55:07.575Z,94847.67
2019-04-05T05:57:49.565Z,94849.97
2019-04-05T06:00:39.394Z,94849.03
2019-04-05T06:03:29.178Z,94849.26
2019-04-05T06:06:18.971Z,94855.19
2019-04-05T06:09:09.152Z,94866.74
2019-04-05T06:11:59.237Z,94865.31
2019-04-05T06:17:45.685Z,94868.23
2019-04-05T06:20:27.722Z,94869.02
2019-04-05T06:23:17.424Z,94863.08
2019-04-05T06:26:00.281Z,94863.69
2019-04-05T06:28:50.178Z,94853.50
2019-04-05T06:31:39.977Z,94857.61
2019-04-05T06:34:29.890Z,94856.70
2019-04-05T06:37:19.654Z,94858.94
2019-04-05T06:40:09.501Z,94826.84
2019-04-05T06:42:59.296Z,94862.73
2019-04-05T06:45:49.081Z,94864.61
2019-04-05T06:48:36.268Z,94857.20
2019-04-05T06:51:18.355Z,94849.45
2019-04-05T06:54:08.154Z,94841.37
2019-04-05T06:56:57.930Z,94848.87
2019-04-05T07:02:57.834Z,94828.13
2019-04-05T07:05:41.334Z,94831.80
2019-04-05T07:08:29.722Z,94819.84
2019-04-05T07:11:12.210Z,94822.92
2019-04-05T07:14:01.969Z,94815.12
2019-04-05T07:17:04.206Z,94830.52
2019-04-05T07:19:47.106Z,94830.47
2019-04-05T07:22:39.423Z,94827.98
2019-04-05T07:25:20.872Z,94804.80
2019-04-05T07:28:10.592Z,94833.47
2019-04-05T07:30:53.474Z,94832.52
2019-04-05T07:33:43.222Z,94829.67
2019-04-05T07:36:25.887Z,94817.09
2019-04-05T07:39:15.590Z,94831.45
2019-04-05T07:41:57.714Z,94827.91
2019-04-05T07:47:48.487Z,94823.82
2019-04-05T07:50:38.269Z,94821.89
2019-04-05T07:53:22.581Z,94830.67
2019-04-05T07:56:12.288Z,94830.05
2019-04-05T07:58:55.552Z,94824.41
2019-04-05T08:01:45.288Z,94828.38
2019-04-05T08:04:27.682Z,94823.55
2019-04-05T08:07:37.983Z,94818.20
2019-04-05T08:10:22.203Z,94816.66
2019-04-05T08:13:32.302Z,94810.64
2019-04-05T08:16:14.447Z,94803.31
2019-04-05T08:19:04.171Z,94816.62
2019-04-05T08:21:46.923Z,94807.99
2019-04-05T08:24:36.642Z,94807.77
2019-04-05T08:27:26.401Z,94811.81
2019-04-05T08:30:10.006Z,94805.13
2019-04-05T08:32:59.796Z,94804.17
2019-04-05T08:35:49.591Z,94803.13
2019-04-05T08:38:39.977Z,94796.94
2019-04-05T08:41:24.231Z,94794.23
2019-04-05T08:44:29.331Z,94783.42
2019-04-05T08:47:11.497Z,94794.81
2019-04-05T08:50:01.206Z,94796.95
2019-04-05T08:52:43.881Z,94800.03
2019-04-05T08:55:33.607Z,94793.84
2019-04-05T08:58:15.735Z,94787.86
2019-04-05T09:01:05.442Z,94789.42
2019-04-05T09:03:49.070Z,94788.84
2019-04-05T09:06:38.774Z,94760.26
2019-04-05T09:09:21.165Z,94784.39
2019-04-05T09:12:10.885Z,94784.97
2019-04-05T09:14:53.657Z,94778.77
2019-04-05T09:17:43.359Z,94778.80
2019-04-05T09:20:25.367Z,94765.47
2019-04-05T09:23:15.143Z,94772.82
2019-04-05T09:25:57.342Z,94771.27
2019-04-05T09:28:47.075Z,94773.03
2019-04-05T09:31:30.005Z,94770.31
2019-04-05T09:34:19.715Z,94758.30
2019-04-05T09:37:01.906Z,94757.48
2019-04-05T09:39:52.029Z,94757.89
2019-04-05T09:42:34.173Z,94756.59
2019-04-05T09:45:23.914Z,94753.43
2019-04-05T09:48:06.039Z,94735.34
2019-04-05T09:50:55.773Z,94747.58
2019-04-05T09:53:38.232Z,94747.03
2019-04-05T09:56:28.039Z,94743.30
2019-04-05T09:58:58.752Z,94737.63
2019-04-05T10:01:48.482Z,94739.55
2019-04-05T10:04:31.327Z,94741.63
2019-04-05T10:07:21.051Z,94730.27
2019-04-05T10:10:03.291Z,94728.84
2019-04-05T10:12:53.006Z,94703.55
2019-04-05T10:15:35.653Z,94711.87
2019-04-05T10:18:25.410Z,94732.48
2019-04-05T10:21:09.118Z,94729.63
2019-04-05T10:23:58.916Z,94733.58
2019-04-05T10:26:48.630Z,94702.25
2019-04-05T10:29:32.160Z,94727.19
2019-04-05T10:32:14.852Z,94721.00
2019-04-05T10:35:04.956Z,94720.45
2019-04-05T10:37:58.192Z,94728.38
2019-04-05T10:40:39.748Z,94721.42
2019-04-05T10:43:29.501Z,94697.19
2019-04-05T10:46:19.372Z,94723.55
2019-04-05T10:49:09.270Z,94718.55
2019-04-05T10:51:59.078Z,94699.55
2019-04-05T10:54:48.818Z,94719.09
2019-04-05T10:57:38.610Z,94719.98
2019-04-05T11:03:44.621Z,94721.92
2019-04-05T11:06:27.250Z,94716.29
2019-04-05T11:09:17.205Z,94708.52
2019-04-05T11:11:47.952Z,94706.30
2019-04-05T11:14:37.658Z,94705.66
2019-04-05T11:17:20.606Z,94712.42
2019-04-05T11:23:24.382Z,94715.66
2019-04-05T11:26:14.162Z,94710.11
2019-04-05T11:29:03.884Z,94706.55
2019-04-05T11:32:12.929Z,94679.89
2019-04-05T11:34:55.656Z,94699.34
2019-04-05T11:37:57.791Z,94705.10
2019-04-05T11:40:47.494Z,94676.55
2019-04-05T11:43:37.467Z,94699.47
2019-04-05T11:46:20.434Z,94676.99
2019-04-05T11:49:10.183Z,94687.52
2019-04-05T11:51:54.223Z,94701.41
2019-04-05T11:57:45.475Z,94696.62
2019-04-05T12:00:54.022Z,94686.23
2019-04-05T12:03:43.911Z,94691.74
2019-04-05T12:06:35.143Z,94701.44
2019-04-05T12:09:17.535Z,94689.63
2019-04-05T12:12:07.457Z,94694.75
2019-04-05T12:14:50.259Z,94696.47
2019-04-05T12:17:40.116Z,94676.82
2019-04-05T12:20:22.137Z,94703.37
2019-04-05T12:23:12.009Z,94699.20
2019-04-05T12:25:54.926Z,94701.91
2019-04-05T12:28:44.664Z,94699.20
2019-04-05T12:31:27.697Z,94690.84
2019-04-05T12:34:17.468Z,94683.33
2019-04-05T12:36:48.159Z,94682.03
2019-04-05T12:39:38.265Z,94674.95
2019-04-05T12:42:20.113Z,94676.61
2019-04-05T12:48:10.886Z,94669.72
2019-04-05T12:51:01.702Z,94677.69
2019-04-05T12:53:46.582Z,94678.83
2019-04-05T12:59:31.684Z,94666.13
2019-04-05T13:02:33.147Z,94643.55
2019-04-05T13:05:05.683Z,94646.11
2019-04-05T13:07:55.454Z,94658.50
2019-04-05T13:10:37.723Z,94655.15
2019-04-05T13:13:27.724Z,94653.29
2019-04-05T13:16:11.644Z,94648.11
2019-04-05T13:19:01.631Z,94642.67
2019-04-05T13:21:45.884Z,94653.70
2019-04-05T13:24:37.461Z,94646.45
2019-04-05T13:27:20.171Z,94652.88
2019-04-05T13:30:10.015Z,94645.81
2019-04-05T13:32:53.559Z,94644.24
2019-04-05T13:35:43.332Z,94651.36
2019-04-05T13:38:26.157Z,94626.61
2019-04-05T13:41:18.916Z,94650.01
2019-04-05T13:44:01.553Z,94645.56
2019-04-05T13:46:50.999Z,94642.64
2019-04-05T13:49:33.111Z,94634.20
2019-04-05T13:52:22.826Z,94632.38
2019-04-05T13:55:05.536Z,94638.44
2019-04-05T13:57:55.342Z,94638.86
2019-04-05T14:00:37.426Z,94632.39
2019-04-05T14:03:27.216Z,94635.77
2019-04-05T14:06:11.168Z,94629.53
2019-04-05T14:08:53.530Z,94638.98
2019-04-05T14:11:43.289Z,94630.73
2019-04-05T14:17:21.622Z,94630.78
2019-04-05T14:23:12.317Z,94633.55
2019-04-05T14:26:02.142Z,94629.49
2019-04-05T14:31:55.784Z,94635.05
2019-04-05T14:34:38.548Z,94636.48
2019-04-05T14:40:23.660Z,94643.61
2019-04-05T14:43:15.027Z,94637.20
2019-04-05T14:45:58.066Z,94641.46
2019-04-05T14:48:47.804Z,94642.20
2019-04-05T14:51:30.203Z,94645.88
2019-04-05T14:54:19.951Z,94649.14
2019-04-05T14:57:05.706Z,94644.14
2019-04-05T15:02:55.048Z,94641.42
2019-04-05T15:08:47.968Z,94641.89
2019-04-05T15:11:37.355Z,94635.91
2019-04-05T15:14:20.070Z,94641.55
2019-04-05T15:17:09.804Z,94619.36
2019-04-05T15:19:52.662Z,94644.09
2019-04-05T15:22:42.434Z,94649.09
2019-04-05T15:25:24.851Z,94649.01
2019-04-05T15:34:14.289Z,94653.27
2019-04-05T15:37:04.113Z,94648.30
2019-04-05T15:39:46.400Z,94647.39
2019-04-05T15:42:36.175Z,94642.22
2019-04-05T15:45:18.339Z,94643.92
2019-04-05T15:48:08.033Z,94648.73
2019-04-05T15:50:51.636Z,94642.11
2019-04-05T15:53:42.101Z,94650.84
2019-04-05T15:56:34.045Z,94644.83
2019-04-05T15:59:16.006Z,94652.89
2019-04-05T16:02:05.927Z,94647.73
2019-04-05T16:04:55.731Z,94651.99
2019-04-05T16:07:45.531Z,94647.59
2019-04-05T16:10:35.326Z,94644.55
2019-04-05T16:13:25.111Z,94645.52
2019-04-05T16:16:34.023Z,94658.27
2019-04-05T16:19:23.819Z,94659.38
2019-04-05T16:24:57.257Z,94666.64
2019-04-05T16:30:48.301Z,94667.38
2019-04-05T16:33:38.026Z,94664.69
2019-04-05T16:36:20.883Z,94666.31
2019-04-05T16:42:04.885Z,94664.92
2019-04-05T16:44:54.715Z,94663.55
2019-04-05T16:47:44.515Z,94665.19
2019-04-05T16:50:34.407Z,94667.55
2019-04-05T16:53:24.111Z,94666.26
2019-04-05T16:56:13.974Z,94673.56
2019-04-05T16:58:56.933Z,94671.13
2019-04-05T17:01:46.656Z,94666.91
2019-04-05T17:04:29.522Z,94670.56
2019-04-05T17:07:19.243Z,94670.02
2019-04-05T17:10:01.414Z,94674.13
2019-04-05T17:12:51.190Z,94669.05
2019-04-05T17:15:33.877Z,94673.73
2019-04-05T17:18:23.636Z,94676.26
2019-04-05T17:21:06.532Z,94675.13
2019-04-05T17:23:50.798Z,94677.02
2019-04-05T17:26:53.506Z,94662.97
2019-04-05T17:29:36.161Z,94669.92
2019-04-05T17:32:25.913Z,94653.14
2019-04-05T17:35:09.407Z,94662.90
2019-04-05T17:37:59.136Z,94676.43
2019-04-05T17:40:41.484Z,94676.98
2019-04-05T17:43:31.180Z,94664.88
2019-04-05T17:46:13.560Z,94681.36
2019-04-05T17:49:03.317Z,94684.69
2019-04-05T17:51:45.697Z,94675.41
2019-04-05T17:54:54.664Z,94692.59
2019-04-05T17:57:37.252Z,94685.90
2019-04-05T18:00:27.036Z,94690.49
2019-04-05T18:03:09.793Z,94691.75
2019-04-05T18:05:59.481Z,94696.62
2019-04-05T18:08:41.990Z,94699.27
2019-04-05T18:11:31.695Z,94701.33
2019-04-05T18:14:14.285Z,94702.59
2019-04-05T18:20:09.640Z,94704.36
2019-04-05T18:22:58.496Z,94709.45
2019-04-05T18:25:40.480Z,94702.73
2019-04-05T18:34:48.552Z,94718.98
2019-04-05T18:37:38.331Z,94717.00
2019-04-05T18:40:39.548Z,94720.98
2019-04-05T18:43:12.524Z,94719.80
2019-04-05T18:46:02.453Z,94713.00
2019-04-05T18:48:52.236Z,94726.33
2019-04-05T18:51:42.126Z,94703.62
2019-04-05T18:54:31.944Z,94734.70
2019-04-05T18:57:28.216Z,94738.16
2019-04-05T19:00:11.861Z,94737.80
2019-04-05T19:02:45.980Z,94729.88
2019-04-05T19:08:44.487Z,94736.07
2019-04-05T19:11:28.448Z,94711.63
2019-04-05T19:14:12.455Z,94734.63
2019-04-05T19:19:45.048Z,94740.11
2019-04-05T19:22:35.664Z,94741.06
2019-04-05T19:25:18.034Z,94748.26
2019-04-05T19:28:30.486Z,94749.41
2019-04-05T19:50:56.860Z,94768.19
2019-04-05T19:53:27.691Z,94766.84
2019-04-05T19:59:09.675Z,94768.38
2019-04-05T20:01:59.868Z,94768.39
2019-04-05T20:04:42.185Z,94768.20
2019-04-05T20:10:28.793Z,94758.91
2019-04-05T20:13:18.545Z,94766.05
2019-04-05T20:16:08.255Z,94769.16
2019-04-05T20:18:51.010Z,94767.59
2019-04-05T20:21:33.043Z,94741.37
2019-04-05T20:24:22.836Z,94766.47
2019-04-05T20:27:12.655Z,94765.12
2019-04-05T20:30:02.454Z,94773.77
2019-04-05T20:32:52.264Z,94776.11
2019-04-05T20:41:05.093Z,94782.59
2019-04-05T20:43:54.857Z,94785.47
2019-04-05T20:47:03.872Z,94784.70
2019-04-05T20:49:53.727Z,94781.44
2019-04-05T20:52:43.641Z,94781.18
2019-04-05T20:55:33.573Z,94784.47
2019-04-05T20:58:24.658Z,94787.74
2019-04-05T21:01:08.669Z,94787.34
2019-04-05T21:03:58.454Z,94779.84
2019-04-05T21:09:42.051Z,94786.03
2019-04-05T21:12:31.810Z,94779.09
2019-04-05T21:15:21.628Z,94783.68
2019-04-05T21:18:11.603Z,94791.17
2019-04-05T21:21:01.419Z,94790.45
2019-04-05T21:23:51.182Z,94788.56
2019-04-05T21:27:00.166Z,94788.34
2019-04-05T21:29:43.065Z,94781.92
2019-04-05T21:32:32.857Z,94781.55
2019-04-05T21:35:22.759Z,94788.52
2019-04-05T21:38:31.324Z,94785.19
2019-04-05T21:41:14.093Z,94788.06
2019-04-05T21:44:03.840Z,94794.38
2019-04-05T21:46:53.748Z,94767.23
2019-04-05T21:49:43.504Z,94787.69
2019-04-05T21:52:33.204Z,94797.19
2019-04-05T21:55:16.812Z,94797.55
2019-04-05T21:57:59.590Z,94805.46
2019-04-05T22:04:06.294Z,94812.83
2019-04-05T22:06:56.011Z,94814.78
2019-04-05T22:09:38.822Z,94820.52
2019-04-05T22:12:28.641Z,94812.05
2019-04-05T22:15:11.075Z,94819.56
2019-04-05T22:18:00.762Z,94809.89
2019-04-05T22:20:43.392Z,94807.71
2019-04-05T22:23:33.095Z,94814.35
2019-04-05T22:26:22.305Z,94810.95
2019-04-05T22:29:12.112Z,94807.52
2019-04-05T22:31:54.754Z,94791.39
2019-04-05T22:34:44.638Z,94814.95
2019-04-05T22:37:27.464Z,94815.66
2019-04-05T22:43:22.688Z,94811.66
2019-04-05T22:46:12.393Z,94808.67
2019-04-05T22:48:55.478Z,94815.55
2019-04-05T22:51:45.585Z,94820.57
2019-04-05T22:54:28.663Z,94823.44
2019-04-05T22:57:18.406Z,94823.31
2019-04-05T23:12:56.763Z,94818.97
2019-04-05T23:15:39.290Z,94820.52
2019-04-05T23:18:29.075Z,94818.40
2019-04-05T23:21:11.775Z,94818.78
2019-04-05T23:24:01.524Z,94823.09
2019-04-05T23:26:44.562Z,94821.47
2019-04-05T23:29:34.437Z,94814.41
2019-04-05T23:32:16.916Z,94823.39
2019-04-05T23:35:06.992Z,94811.12
2019-04-05T23:37:51.146Z,94820.44
2019-04-05T23:40:41.307Z,94817.69
2019-04-05T23:43:23.497Z,94820.94
2019-04-05T23:49:14.382Z,94817.00
2019-04-05T23:52:04.145Z,94799.83
2019-04-05T23:54:53.881Z,94827.45
2019-04-05T23:57:35.821Z,94821.34
